sensor_id;sensor_type;location;lat;lon;timestamp;P1;durP1;ratioP1;P2;durP2;ratioP2
20173;SDS011;10246;50.620;7.232;2022-12-18T00:02:12;37.13;;;14.53;;
20173;SDS011;10246;50.620;7.232;2022-12-18T00:04:40;33.37;;;14.37;;
20173;SDS011;10246;50.620;7.232;2022-12-18T00:07:07;32.40;;;14.07;;
20173;SDS011;10246;50.620;7.232;2022-12-18T00:09:34;38.67;;;15.57;;
20173;SDS011;10246;50.620;7.232;2022-12-18T00:12:01;35.20;;;15.17;;
20173;SDS011;10246;50.620;7.232;2022-12-18T00:14:27;35.57;;;14.17;;
20173;SDS011;10246;50.620;7.232;2022-12-18T00:16:54;33.57;;;13.87;;
20173;SDS011;10246;50.620;7.232;2022-12-18T00:19:23;33.80;;;15.03;;
20173;SDS011;10246;50.620;7.232;2022-12-18T00:21:51;30.93;;;13.90;;
20173;SDS011;10246;50.620;7.232;2022-12-18T00:24:18;32.70;;;14.20;;
20173;SDS011;10246;50.620;7.232;2022-12-18T00:26:44;32.60;;;14.10;;
20173;SDS011;10246;50.620;7.232;2022-12-18T00:29:12;35.17;;;14.10;;
20173;SDS011;10246;50.620;7.232;2022-12-18T00:31:40;33.83;;;14.90;;
20173;SDS011;10246;50.620;7.232;2022-12-18T00:34:08;34.70;;;14.70;;
20173;SDS011;10246;50.620;7.232;2022-12-18T00:36:37;36.17;;;15.23;;
20173;SDS011;10246;50.620;7.232;2022-12-18T00:39:06;33.50;;;14.23;;
20173;SDS011;10246;50.620;7.232;2022-12-18T00:41:33;30.83;;;14.03;;
20173;SDS011;10246;50.620;7.232;2022-12-18T00:44:17;29.10;;;12.37;;
20173;SDS011;10246;50.620;7.232;2022-12-18T00:46:45;32.00;;;13.50;;
20173;SDS011;10246;50.620;7.232;2022-12-18T00:49:12;33.73;;;13.30;;
20173;SDS011;10246;50.620;7.232;2022-12-18T00:51:40;31.90;;;13.63;;
20173;SDS011;10246;50.620;7.232;2022-12-18T00:54:08;31.00;;;12.30;;
20173;SDS011;10246;50.620;7.232;2022-12-18T00:56:36;34.77;;;13.90;;
20173;SDS011;10246;50.620;7.232;2022-12-18T00:59:04;29.37;;;13.30;;
20173;SDS011;10246;50.620;7.232;2022-12-18T01:01:30;30.40;;;13.70;;
20173;SDS011;10246;50.620;7.232;2022-12-18T01:03:59;27.33;;;11.27;;
20173;SDS011;10246;50.620;7.232;2022-12-18T01:06:26;35.63;;;12.90;;
20173;SDS011;10246;50.620;7.232;2022-12-18T01:08:53;25.23;;;10.93;;
20173;SDS011;10246;50.620;7.232;2022-12-18T01:11:21;24.97;;;11.20;;
20173;SDS011;10246;50.620;7.232;2022-12-18T01:13:48;30.87;;;11.43;;
20173;SDS011;10246;50.620;7.232;2022-12-18T01:16:16;23.27;;;10.97;;
20173;SDS011;10246;50.620;7.232;2022-12-18T01:18:46;25.47;;;12.13;;
20173;SDS011;10246;50.620;7.232;2022-12-18T01:21:13;26.10;;;11.47;;
20173;SDS011;10246;50.620;7.232;2022-12-18T01:23:41;27.43;;;10.80;;
20173;SDS011;10246;50.620;7.232;2022-12-18T01:26:11;27.83;;;11.67;;
20173;SDS011;10246;50.620;7.232;2022-12-18T01:28:41;23.37;;;10.47;;
20173;SDS011;10246;50.620;7.232;2022-12-18T01:31:13;28.33;;;12.03;;
20173;SDS011;10246;50.620;7.232;2022-12-18T01:33:42;25.57;;;11.33;;
20173;SDS011;10246;50.620;7.232;2022-12-18T01:36:14;26.53;;;11.03;;
20173;SDS011;10246;50.620;7.232;2022-12-18T01:38:41;23.17;;;10.17;;
20173;SDS011;10246;50.620;7.232;2022-12-18T01:41:08;25.57;;;10.03;;
20173;SDS011;10246;50.620;7.232;2022-12-18T01:43:56;27.83;;;11.33;;
20173;SDS011;10246;50.620;7.232;2022-12-18T01:46:23;30.33;;;11.53;;
20173;SDS011;10246;50.620;7.232;2022-12-18T01:48:52;28.57;;;11.77;;
20173;SDS011;10246;50.620;7.232;2022-12-18T01:51:22;26.53;;;12.17;;
20173;SDS011;10246;50.620;7.232;2022-12-18T01:53:49;27.43;;;11.43;;
20173;SDS011;10246;50.620;7.232;2022-12-18T01:56:16;25.20;;;10.53;;
20173;SDS011;10246;50.620;7.232;2022-12-18T01:58:48;21.97;;;9.63;;
20173;SDS011;10246;50.620;7.232;2022-12-18T02:01:20;29.03;;;12.33;;
20173;SDS011;10246;50.620;7.232;2022-12-18T02:03:48;32.80;;;12.27;;
20173;SDS011;10246;50.620;7.232;2022-12-18T02:06:16;28.93;;;11.70;;
20173;SDS011;10246;50.620;7.232;2022-12-18T02:08:53;28.30;;;12.97;;
20173;SDS011;10246;50.620;7.232;2022-12-18T02:11:36;32.13;;;11.67;;
20173;SDS011;10246;50.620;7.232;2022-12-18T02:14:15;29.30;;;11.93;;
20173;SDS011;10246;50.620;7.232;2022-12-18T02:16:50;29.07;;;12.27;;
20173;SDS011;10246;50.620;7.232;2022-12-18T02:19:30;32.47;;;13.87;;
20173;SDS011;10246;50.620;7.232;2022-12-18T02:22:07;33.40;;;13.97;;
20173;SDS011;10246;50.620;7.232;2022-12-18T02:24:43;29.63;;;12.83;;
20173;SDS011;10246;50.620;7.232;2022-12-18T02:27:19;36.07;;;13.70;;
20173;SDS011;10246;50.620;7.232;2022-12-18T02:29:48;36.13;;;14.00;;
20173;SDS011;10246;50.620;7.232;2022-12-18T02:32:18;36.70;;;15.70;;
20173;SDS011;10246;50.620;7.232;2022-12-18T02:34:50;30.33;;;13.37;;
20173;SDS011;10246;50.620;7.232;2022-12-18T02:37:18;37.83;;;13.80;;
20173;SDS011;10246;50.620;7.232;2022-12-18T02:39:47;34.57;;;13.43;;
20173;SDS011;10246;50.620;7.232;2022-12-18T02:42:15;28.53;;;13.17;;
20173;SDS011;10246;50.620;7.232;2022-12-18T02:44:45;35.97;;;14.53;;
20173;SDS011;10246;50.620;7.232;2022-12-18T02:47:14;34.27;;;14.30;;
20173;SDS011;10246;50.620;7.232;2022-12-18T02:49:49;34.87;;;14.00;;
20173;SDS011;10246;50.620;7.232;2022-12-18T02:52:24;33.53;;;14.23;;
20173;SDS011;10246;50.620;7.232;2022-12-18T02:54:57;30.03;;;13.93;;
20173;SDS011;10246;50.620;7.232;2022-12-18T02:57:34;38.33;;;15.23;;
20173;SDS011;10246;50.620;7.232;2022-12-18T03:00:08;32.80;;;13.33;;
20173;SDS011;10246;50.620;7.232;2022-12-18T03:02:39;29.73;;;13.03;;
20173;SDS011;10246;50.620;7.232;2022-12-18T03:05:11;34.90;;;13.83;;
20173;SDS011;10246;50.620;7.232;2022-12-18T03:07:42;33.50;;;14.03;;
20173;SDS011;10246;50.620;7.232;2022-12-18T03:10:13;35.63;;;13.93;;
20173;SDS011;10246;50.620;7.232;2022-12-18T03:12:43;33.60;;;12.57;;
20173;SDS011;10246;50.620;7.232;2022-12-18T03:15:16;32.07;;;13.70;;
20173;SDS011;10246;50.620;7.232;2022-12-18T03:17:48;28.93;;;13.00;;
20173;SDS011;10246;50.620;7.232;2022-12-18T03:20:19;31.97;;;14.37;;
20173;SDS011;10246;50.620;7.232;2022-12-18T03:22:49;32.80;;;13.87;;
20173;SDS011;10246;50.620;7.232;2022-12-18T03:25:19;34.20;;;14.23;;
20173;SDS011;10246;50.620;7.232;2022-12-18T03:27:46;30.60;;;12.33;;
20173;SDS011;10246;50.620;7.232;2022-12-18T03:30:17;34.83;;;13.00;;
20173;SDS011;10246;50.620;7.232;2022-12-18T03:32:46;28.80;;;12.33;;
20173;SDS011;10246;50.620;7.232;2022-12-18T03:35:17;30.70;;;12.23;;
20173;SDS011;10246;50.620;7.232;2022-12-18T03:37:47;34.57;;;12.90;;
20173;SDS011;10246;50.620;7.232;2022-12-18T03:40:14;28.03;;;11.27;;
20173;SDS011;10246;50.620;7.232;2022-12-18T03:42:43;26.10;;;12.33;;
20173;SDS011;10246;50.620;7.232;2022-12-18T03:45:18;32.67;;;13.60;;
20173;SDS011;10246;50.620;7.232;2022-12-18T03:47:53;31.73;;;12.30;;
20173;SDS011;10246;50.620;7.232;2022-12-18T03:50:27;38.07;;;13.37;;
20173;SDS011;10246;50.620;7.232;2022-12-18T03:53:04;24.00;;;11.07;;
20173;SDS011;10246;50.620;7.232;2022-12-18T03:55:38;30.83;;;11.63;;
20173;SDS011;10246;50.620;7.232;2022-12-18T03:58:08;31.03;;;11.37;;
20173;SDS011;10246;50.620;7.232;2022-12-18T04:00:39;25.60;;;11.77;;
20173;SDS011;10246;50.620;7.232;2022-12-18T04:03:07;24.90;;;11.67;;
20173;SDS011;10246;50.620;7.232;2022-12-18T04:05:35;29.77;;;12.33;;
20173;SDS011;10246;50.620;7.232;2022-12-18T04:08:03;30.17;;;12.97;;
20173;SDS011;10246;50.620;7.232;2022-12-18T04:10:31;33.60;;;13.87;;
20173;SDS011;10246;50.620;7.232;2022-12-18T04:12:57;31.97;;;11.97;;
20173;SDS011;10246;50.620;7.232;2022-12-18T04:15:24;28.50;;;11.70;;
20173;SDS011;10246;50.620;7.232;2022-12-18T04:17:53;30.87;;;11.93;;
20173;SDS011;10246;50.620;7.232;2022-12-18T04:20:20;30.23;;;12.63;;
20173;SDS011;10246;50.620;7.232;2022-12-18T04:22:47;33.77;;;12.57;;
20173;SDS011;10246;50.620;7.232;2022-12-18T04:25:14;25.53;;;11.77;;
20173;SDS011;10246;50.620;7.232;2022-12-18T04:27:41;24.70;;;11.57;;
20173;SDS011;10246;50.620;7.232;2022-12-18T04:30:08;27.00;;;11.67;;
20173;SDS011;10246;50.620;7.232;2022-12-18T04:32:35;29.40;;;13.00;;
20173;SDS011;10246;50.620;7.232;2022-12-18T04:35:04;30.10;;;12.97;;
20173;SDS011;10246;50.620;7.232;2022-12-18T04:37:35;28.17;;;12.93;;
20173;SDS011;10246;50.620;7.232;2022-12-18T04:40:02;30.47;;;12.30;;
20173;SDS011;10246;50.620;7.232;2022-12-18T04:42:29;31.13;;;11.93;;
20173;SDS011;10246;50.620;7.232;2022-12-18T04:44:56;30.03;;;12.80;;
20173;SDS011;10246;50.620;7.232;2022-12-18T04:47:22;32.60;;;12.53;;
20173;SDS011;10246;50.620;7.232;2022-12-18T04:49:49;31.83;;;11.20;;
20173;SDS011;10246;50.620;7.232;2022-12-18T04:52:17;27.73;;;11.00;;
20173;SDS011;10246;50.620;7.232;2022-12-18T04:54:44;30.00;;;12.30;;
20173;SDS011;10246;50.620;7.232;2022-12-18T04:57:11;20.73;;;10.33;;
20173;SDS011;10246;50.620;7.232;2022-12-18T04:59:38;26.77;;;11.87;;
20173;SDS011;10246;50.620;7.232;2022-12-18T05:02:04;27.63;;;11.03;;
20173;SDS011;10246;50.620;7.232;2022-12-18T05:04:31;30.77;;;12.10;;
20173;SDS011;10246;50.620;7.232;2022-12-18T05:06:58;25.97;;;11.30;;
20173;SDS011;10246;50.620;7.232;2022-12-18T05:09:26;25.87;;;11.10;;
20173;SDS011;10246;50.620;7.232;2022-12-18T05:11:53;26.43;;;12.37;;
20173;SDS011;10246;50.620;7.232;2022-12-18T05:14:20;31.17;;;12.83;;
20173;SDS011;10246;50.620;7.232;2022-12-18T05:16:47;26.50;;;10.97;;
20173;SDS011;10246;50.620;7.232;2022-12-18T05:19:13;31.97;;;12.93;;
20173;SDS011;10246;50.620;7.232;2022-12-18T05:21:40;28.00;;;12.07;;
20173;SDS011;10246;50.620;7.232;2022-12-18T05:24:07;24.90;;;11.77;;
20173;SDS011;10246;50.620;7.232;2022-12-18T05:26:35;27.83;;;11.20;;
20173;SDS011;10246;50.620;7.232;2022-12-18T05:29:02;27.70;;;12.30;;
20173;SDS011;10246;50.620;7.232;2022-12-18T05:31:29;25.00;;;11.73;;
20173;SDS011;10246;50.620;7.232;2022-12-18T05:33:55;24.00;;;11.10;;
20173;SDS011;10246;50.620;7.232;2022-12-18T05:36:23;28.77;;;13.70;;
20173;SDS011;10246;50.620;7.232;2022-12-18T05:38:50;33.03;;;12.77;;
20173;SDS011;10246;50.620;7.232;2022-12-18T05:41:17;29.73;;;13.17;;
20173;SDS011;10246;50.620;7.232;2022-12-18T05:43:45;28.30;;;12.47;;
20173;SDS011;10246;50.620;7.232;2022-12-18T05:46:13;27.07;;;12.33;;
20173;SDS011;10246;50.620;7.232;2022-12-18T05:48:42;26.20;;;12.10;;
20173;SDS011;10246;50.620;7.232;2022-12-18T05:51:10;26.07;;;12.50;;
20173;SDS011;10246;50.620;7.232;2022-12-18T05:53:39;33.27;;;13.00;;
20173;SDS011;10246;50.620;7.232;2022-12-18T05:56:08;31.60;;;12.57;;
20173;SDS011;10246;50.620;7.232;2022-12-18T05:58:36;28.60;;;12.80;;
20173;SDS011;10246;50.620;7.232;2022-12-18T06:01:08;26.90;;;12.13;;
20173;SDS011;10246;50.620;7.232;2022-12-18T06:03:37;28.70;;;12.87;;
20173;SDS011;10246;50.620;7.232;2022-12-18T06:06:04;33.53;;;12.97;;
20173;SDS011;10246;50.620;7.232;2022-12-18T06:08:38;38.13;;;13.40;;
20173;SDS011;10246;50.620;7.232;2022-12-18T06:11:05;29.33;;;13.13;;
20173;SDS011;10246;50.620;7.232;2022-12-18T06:13:32;31.47;;;13.10;;
20173;SDS011;10246;50.620;7.232;2022-12-18T06:16:01;39.83;;;14.20;;
20173;SDS011;10246;50.620;7.232;2022-12-18T06:18:30;30.20;;;12.90;;
20173;SDS011;10246;50.620;7.232;2022-12-18T06:20:57;24.47;;;11.67;;
20173;SDS011;10246;50.620;7.232;2022-12-18T06:23:25;27.13;;;12.27;;
20173;SDS011;10246;50.620;7.232;2022-12-18T06:25:52;29.73;;;12.87;;
20173;SDS011;10246;50.620;7.232;2022-12-18T06:28:19;28.63;;;12.23;;
20173;SDS011;10246;50.620;7.232;2022-12-18T06:30:47;32.70;;;13.30;;
20173;SDS011;10246;50.620;7.232;2022-12-18T06:33:14;29.93;;;12.70;;
20173;SDS011;10246;50.620;7.232;2022-12-18T06:35:42;28.93;;;12.73;;
20173;SDS011;10246;50.620;7.232;2022-12-18T06:38:09;34.27;;;13.30;;
20173;SDS011;10246;50.620;7.232;2022-12-18T06:40:36;30.00;;;12.63;;
20173;SDS011;10246;50.620;7.232;2022-12-18T06:43:04;30.67;;;12.93;;
20173;SDS011;10246;50.620;7.232;2022-12-18T06:45:31;27.67;;;11.93;;
20173;SDS011;10246;50.620;7.232;2022-12-18T06:47:58;30.27;;;13.33;;
20173;SDS011;10246;50.620;7.232;2022-12-18T06:50:24;28.30;;;13.27;;
20173;SDS011;10246;50.620;7.232;2022-12-18T06:52:52;28.37;;;13.00;;
20173;SDS011;10246;50.620;7.232;2022-12-18T06:55:19;32.50;;;13.27;;
20173;SDS011;10246;50.620;7.232;2022-12-18T06:57:46;31.70;;;12.63;;
20173;SDS011;10246;50.620;7.232;2022-12-18T07:00:13;32.57;;;13.37;;
20173;SDS011;10246;50.620;7.232;2022-12-18T07:02:40;34.67;;;14.80;;
20173;SDS011;10246;50.620;7.232;2022-12-18T07:05:07;29.20;;;13.80;;
20173;SDS011;10246;50.620;7.232;2022-12-18T07:07:34;29.67;;;13.17;;
20173;SDS011;10246;50.620;7.232;2022-12-18T07:10:03;27.30;;;13.40;;
20173;SDS011;10246;50.620;7.232;2022-12-18T07:12:30;30.17;;;12.27;;
20173;SDS011;10246;50.620;7.232;2022-12-18T07:14:57;53.03;;;19.00;;
20173;SDS011;10246;50.620;7.232;2022-12-18T07:17:24;39.27;;;16.63;;
20173;SDS011;10246;50.620;7.232;2022-12-18T07:19:51;39.13;;;15.63;;
20173;SDS011;10246;50.620;7.232;2022-12-18T07:22:17;34.00;;;14.93;;
20173;SDS011;10246;50.620;7.232;2022-12-18T07:24:44;28.97;;;13.87;;
20173;SDS011;10246;50.620;7.232;2022-12-18T07:27:12;29.77;;;13.37;;
20173;SDS011;10246;50.620;7.232;2022-12-18T07:29:39;30.80;;;13.93;;
20173;SDS011;10246;50.620;7.232;2022-12-18T07:32:06;37.87;;;14.53;;
20173;SDS011;10246;50.620;7.232;2022-12-18T07:34:33;36.83;;;14.53;;
20173;SDS011;10246;50.620;7.232;2022-12-18T07:37:00;34.33;;;13.77;;
20173;SDS011;10246;50.620;7.232;2022-12-18T07:39:27;28.93;;;12.83;;
20173;SDS011;10246;50.620;7.232;2022-12-18T07:41:53;30.90;;;13.03;;
20173;SDS011;10246;50.620;7.232;2022-12-18T07:44:39;31.90;;;13.80;;
20173;SDS011;10246;50.620;7.232;2022-12-18T07:47:06;28.20;;;13.37;;
20173;SDS011;10246;50.620;7.232;2022-12-18T07:49:33;33.73;;;13.93;;
20173;SDS011;10246;50.620;7.232;2022-12-18T07:52:00;30.27;;;13.67;;
20173;SDS011;10246;50.620;7.232;2022-12-18T07:54:26;32.10;;;14.33;;
20173;SDS011;10246;50.620;7.232;2022-12-18T07:56:53;36.30;;;15.70;;
20173;SDS011;10246;50.620;7.232;2022-12-18T07:59:20;32.37;;;13.93;;
20173;SDS011;10246;50.620;7.232;2022-12-18T08:01:48;28.77;;;14.43;;
20173;SDS011;10246;50.620;7.232;2022-12-18T08:04:15;33.50;;;13.60;;
20173;SDS011;10246;50.620;7.232;2022-12-18T08:06:42;32.83;;;13.80;;
20173;SDS011;10246;50.620;7.232;2022-12-18T08:09:09;35.83;;;14.80;;
20173;SDS011;10246;50.620;7.232;2022-12-18T08:11:36;31.63;;;13.20;;
20173;SDS011;10246;50.620;7.232;2022-12-18T08:14:03;31.83;;;13.73;;
20173;SDS011;10246;50.620;7.232;2022-12-18T08:16:30;30.10;;;14.63;;
20173;SDS011;10246;50.620;7.232;2022-12-18T08:18:58;28.47;;;14.23;;
20173;SDS011;10246;50.620;7.232;2022-12-18T08:21:25;30.03;;;14.80;;
20173;SDS011;10246;50.620;7.232;2022-12-18T08:23:54;31.43;;;14.03;;
20173;SDS011;10246;50.620;7.232;2022-12-18T08:26:22;37.67;;;15.70;;
20173;SDS011;10246;50.620;7.232;2022-12-18T08:28:50;35.23;;;15.73;;
20173;SDS011;10246;50.620;7.232;2022-12-18T08:31:18;40.70;;;15.13;;
20173;SDS011;10246;50.620;7.232;2022-12-18T08:33:45;32.33;;;14.23;;
20173;SDS011;10246;50.620;7.232;2022-12-18T08:36:15;38.00;;;14.97;;
20173;SDS011;10246;50.620;7.232;2022-12-18T08:38:43;31.57;;;15.07;;
20173;SDS011;10246;50.620;7.232;2022-12-18T08:41:10;37.70;;;16.10;;
20173;SDS011;10246;50.620;7.232;2022-12-18T08:43:38;33.63;;;13.33;;
20173;SDS011;10246;50.620;7.232;2022-12-18T08:46:24;33.23;;;15.40;;
20173;SDS011;10246;50.620;7.232;2022-12-18T08:48:52;32.47;;;14.90;;
20173;SDS011;10246;50.620;7.232;2022-12-18T08:51:21;30.47;;;14.20;;
20173;SDS011;10246;50.620;7.232;2022-12-18T08:53:48;36.00;;;14.73;;
20173;SDS011;10246;50.620;7.232;2022-12-18T08:56:14;33.63;;;14.47;;
20173;SDS011;10246;50.620;7.232;2022-12-18T08:58:41;31.07;;;14.60;;
20173;SDS011;10246;50.620;7.232;2022-12-18T09:01:09;35.70;;;16.33;;
20173;SDS011;10246;50.620;7.232;2022-12-18T09:03:37;35.13;;;15.40;;
20173;SDS011;10246;50.620;7.232;2022-12-18T09:06:05;33.10;;;15.20;;
20173;SDS011;10246;50.620;7.232;2022-12-18T09:08:33;32.17;;;14.57;;
20173;SDS011;10246;50.620;7.232;2022-12-18T09:11:01;31.83;;;13.60;;
20173;SDS011;10246;50.620;7.232;2022-12-18T09:13:28;33.37;;;15.63;;
20173;SDS011;10246;50.620;7.232;2022-12-18T09:15:55;27.70;;;13.63;;
20173;SDS011;10246;50.620;7.232;2022-12-18T09:18:23;34.13;;;15.00;;
20173;SDS011;10246;50.620;7.232;2022-12-18T09:20:50;27.43;;;13.90;;
20173;SDS011;10246;50.620;7.232;2022-12-18T09:23:18;37.37;;;16.37;;
20173;SDS011;10246;50.620;7.232;2022-12-18T09:25:46;32.97;;;15.90;;
20173;SDS011;10246;50.620;7.232;2022-12-18T09:28:13;34.60;;;16.33;;
20173;SDS011;10246;50.620;7.232;2022-12-18T09:30:43;41.53;;;16.00;;
20173;SDS011;10246;50.620;7.232;2022-12-18T09:33:11;40.10;;;17.80;;
20173;SDS011;10246;50.620;7.232;2022-12-18T09:35:38;35.93;;;16.63;;
20173;SDS011;10246;50.620;7.232;2022-12-18T09:38:06;32.23;;;16.03;;
20173;SDS011;10246;50.620;7.232;2022-12-18T09:40:39;32.77;;;15.50;;
20173;SDS011;10246;50.620;7.232;2022-12-18T09:43:13;32.53;;;14.70;;
20173;SDS011;10246;50.620;7.232;2022-12-18T09:45:44;31.73;;;14.87;;
20173;SDS011;10246;50.620;7.232;2022-12-18T09:48:15;28.87;;;14.77;;
20173;SDS011;10246;50.620;7.232;2022-12-18T09:50:46;34.93;;;16.70;;
20173;SDS011;10246;50.620;7.232;2022-12-18T09:53:15;35.80;;;16.47;;
20173;SDS011;10246;50.620;7.232;2022-12-18T09:55:45;32.33;;;14.70;;
20173;SDS011;10246;50.620;7.232;2022-12-18T09:58:17;32.30;;;16.53;;
20173;SDS011;10246;50.620;7.232;2022-12-18T10:01:01;33.40;;;15.23;;
20173;SDS011;10246;50.620;7.232;2022-12-18T10:03:32;31.20;;;14.17;;
20173;SDS011;10246;50.620;7.232;2022-12-18T10:06:02;30.23;;;14.60;;
20173;SDS011;10246;50.620;7.232;2022-12-18T10:08:39;29.27;;;14.57;;
20173;SDS011;10246;50.620;7.232;2022-12-18T10:11:32;31.57;;;14.67;;
20173;SDS011;10246;50.620;7.232;2022-12-18T10:14:09;27.77;;;13.20;;
20173;SDS011;10246;50.620;7.232;2022-12-18T10:16:51;28.00;;;14.20;;
20173;SDS011;10246;50.620;7.232;2022-12-18T10:19:41;33.17;;;14.43;;
20173;SDS011;10246;50.620;7.232;2022-12-18T10:22:19;26.20;;;13.33;;
20173;SDS011;10246;50.620;7.232;2022-12-18T10:24:59;30.80;;;14.50;;
20173;SDS011;10246;50.620;7.232;2022-12-18T10:27:31;26.37;;;13.40;;
20173;SDS011;10246;50.620;7.232;2022-12-18T10:29:59;24.77;;;13.77;;
20173;SDS011;10246;50.620;7.232;2022-12-18T10:32:27;28.23;;;14.40;;
20173;SDS011;10246;50.620;7.232;2022-12-18T10:34:57;32.80;;;14.93;;
20173;SDS011;10246;50.620;7.232;2022-12-18T10:37:25;27.67;;;14.37;;
20173;SDS011;10246;50.620;7.232;2022-12-18T10:40:06;27.87;;;13.97;;
20173;SDS011;10246;50.620;7.232;2022-12-18T10:42:57;28.87;;;14.87;;
20173;SDS011;10246;50.620;7.232;2022-12-18T10:49:55;25.20;;;12.77;;
20173;SDS011;10246;50.620;7.232;2022-12-18T10:53:23;29.23;;;14.10;;
20173;SDS011;10246;50.620;7.232;2022-12-18T11:09:40;30.83;;;14.77;;
20173;SDS011;10246;50.620;7.232;2022-12-18T11:12:24;30.07;;;14.33;;
20173;SDS011;10246;50.620;7.232;2022-12-18T11:14:57;27.07;;;14.30;;
20173;SDS011;10246;50.620;7.232;2022-12-18T11:17:25;29.23;;;14.50;;
20173;SDS011;10246;50.620;7.232;2022-12-18T11:19:56;25.73;;;14.30;;
20173;SDS011;10246;50.620;7.232;2022-12-18T11:22:24;33.00;;;15.83;;
20173;SDS011;10246;50.620;7.232;2022-12-18T11:24:55;26.77;;;14.17;;
20173;SDS011;10246;50.620;7.232;2022-12-18T11:27:24;27.80;;;14.57;;
20173;SDS011;10246;50.620;7.232;2022-12-18T11:29:52;29.17;;;14.80;;
20173;SDS011;10246;50.620;7.232;2022-12-18T11:32:27;29.90;;;14.10;;
20173;SDS011;10246;50.620;7.232;2022-12-18T11:35:01;27.50;;;14.00;;
20173;SDS011;10246;50.620;7.232;2022-12-18T11:37:40;29.57;;;16.10;;
20173;SDS011;10246;50.620;7.232;2022-12-18T11:40:11;27.10;;;14.33;;
20173;SDS011;10246;50.620;7.232;2022-12-18T11:42:45;29.60;;;15.17;;
20173;SDS011;10246;50.620;7.232;2022-12-18T11:45:27;32.20;;;15.40;;
20173;SDS011;10246;50.620;7.232;2022-12-18T11:48:01;25.93;;;14.30;;
20173;SDS011;10246;50.620;7.232;2022-12-18T11:50:32;28.70;;;15.37;;
20173;SDS011;10246;50.620;7.232;2022-12-18T11:53:09;31.53;;;15.57;;
20173;SDS011;10246;50.620;7.232;2022-12-18T11:55:39;29.70;;;15.37;;
20173;SDS011;10246;50.620;7.232;2022-12-18T11:58:15;32.33;;;16.10;;
20173;SDS011;10246;50.620;7.232;2022-12-18T12:00:51;29.93;;;15.03;;
20173;SDS011;10246;50.620;7.232;2022-12-18T12:03:48;31.70;;;16.20;;
20173;SDS011;10246;50.620;7.232;2022-12-18T12:06:41;32.70;;;16.50;;
20173;SDS011;10246;50.620;7.232;2022-12-18T12:09:18;37.37;;;19.43;;
20173;SDS011;10246;50.620;7.232;2022-12-18T12:11:53;34.60;;;17.67;;
20173;SDS011;10246;50.620;7.232;2022-12-18T12:14:37;31.97;;;16.80;;
20173;SDS011;10246;50.620;7.232;2022-12-18T12:17:12;30.33;;;15.47;;
20173;SDS011;10246;50.620;7.232;2022-12-18T12:19:47;29.83;;;14.83;;
20173;SDS011;10246;50.620;7.232;2022-12-18T12:22:21;37.80;;;16.97;;
20173;SDS011;10246;50.620;7.232;2022-12-18T12:25:01;34.43;;;15.90;;
20173;SDS011;10246;50.620;7.232;2022-12-18T12:27:47;33.50;;;16.57;;
20173;SDS011;10246;50.620;7.232;2022-12-18T12:30:24;34.20;;;16.03;;
20173;SDS011;10246;50.620;7.232;2022-12-18T12:33:02;38.70;;;17.70;;
20173;SDS011;10246;50.620;7.232;2022-12-18T12:35:42;32.97;;;16.83;;
20173;SDS011;10246;50.620;7.232;2022-12-18T12:38:13;33.10;;;17.10;;
20173;SDS011;10246;50.620;7.232;2022-12-18T12:40:45;31.80;;;16.57;;
20173;SDS011;10246;50.620;7.232;2022-12-18T12:43:22;29.97;;;15.20;;
20173;SDS011;10246;50.620;7.232;2022-12-18T12:45:54;26.80;;;14.30;;
20173;SDS011;10246;50.620;7.232;2022-12-18T12:48:28;31.53;;;15.67;;
20173;SDS011;10246;50.620;7.232;2022-12-18T12:51:00;29.97;;;16.17;;
20173;SDS011;10246;50.620;7.232;2022-12-18T12:53:34;33.57;;;16.00;;
20173;SDS011;10246;50.620;7.232;2022-12-18T12:56:04;30.40;;;15.60;;
20173;SDS011;10246;50.620;7.232;2022-12-18T12:58:34;31.73;;;15.40;;
20173;SDS011;10246;50.620;7.232;2022-12-18T13:01:09;31.90;;;15.30;;
20173;SDS011;10246;50.620;7.232;2022-12-18T13:03:46;33.50;;;16.17;;
20173;SDS011;10246;50.620;7.232;2022-12-18T13:06:32;33.63;;;16.00;;
20173;SDS011;10246;50.620;7.232;2022-12-18T13:09:16;33.70;;;16.97;;
20173;SDS011;10246;50.620;7.232;2022-12-18T13:11:52;32.70;;;16.37;;
20173;SDS011;10246;50.620;7.232;2022-12-18T13:14:52;34.27;;;17.33;;
20173;SDS011;10246;50.620;7.232;2022-12-18T13:21:20;34.30;;;16.80;;
20173;SDS011;10246;50.620;7.232;2022-12-18T13:23:52;30.83;;;16.37;;
20173;SDS011;10246;50.620;7.232;2022-12-18T13:26:29;37.17;;;17.93;;
20173;SDS011;10246;50.620;7.232;2022-12-18T13:29:03;33.40;;;16.77;;
20173;SDS011;10246;50.620;7.232;2022-12-18T13:36:00;27.60;;;15.13;;
20173;SDS011;10246;50.620;7.232;2022-12-18T13:39:35;32.53;;;16.83;;
20173;SDS011;10246;50.620;7.232;2022-12-18T13:42:36;31.57;;;16.77;;
20173;SDS011;10246;50.620;7.232;2022-12-18T13:45:42;31.57;;;15.50;;
20173;SDS011;10246;50.620;7.232;2022-12-18T13:48:14;32.00;;;16.27;;
20173;SDS011;10246;50.620;7.232;2022-12-18T13:50:47;33.50;;;16.57;;
20173;SDS011;10246;50.620;7.232;2022-12-18T13:53:24;34.10;;;16.90;;
20173;SDS011;10246;50.620;7.232;2022-12-18T13:55:59;30.23;;;15.47;;
20173;SDS011;10246;50.620;7.232;2022-12-18T13:58:27;33.73;;;16.13;;
20173;SDS011;10246;50.620;7.232;2022-12-18T14:00:54;31.83;;;16.60;;
20173;SDS011;10246;50.620;7.232;2022-12-18T14:03:26;32.57;;;16.07;;
20173;SDS011;10246;50.620;7.232;2022-12-18T14:06:04;32.03;;;15.83;;
20173;SDS011;10246;50.620;7.232;2022-12-18T14:08:49;36.07;;;16.83;;
20173;SDS011;10246;50.620;7.232;2022-12-18T14:11:18;31.43;;;15.90;;
20173;SDS011;10246;50.620;7.232;2022-12-18T14:13:48;31.07;;;15.20;;
20173;SDS011;10246;50.620;7.232;2022-12-18T14:16:32;31.57;;;15.70;;
20173;SDS011;10246;50.620;7.232;2022-12-18T14:19:05;33.27;;;16.47;;
20173;SDS011;10246;50.620;7.232;2022-12-18T14:21:38;32.77;;;16.43;;
20173;SDS011;10246;50.620;7.232;2022-12-18T14:24:12;33.43;;;17.23;;
20173;SDS011;10246;50.620;7.232;2022-12-18T14:26:40;33.60;;;15.73;;
20173;SDS011;10246;50.620;7.232;2022-12-18T14:34:41;33.17;;;16.20;;
20173;SDS011;10246;50.620;7.232;2022-12-18T14:37:09;34.50;;;16.50;;
20173;SDS011;10246;50.620;7.232;2022-12-18T14:39:38;34.13;;;16.77;;
20173;SDS011;10246;50.620;7.232;2022-12-18T14:42:05;30.93;;;14.70;;
20173;SDS011;10246;50.620;7.232;2022-12-18T14:44:35;34.83;;;16.13;;
20173;SDS011;10246;50.620;7.232;2022-12-18T14:47:03;30.93;;;16.70;;
20173;SDS011;10246;50.620;7.232;2022-12-18T14:49:30;34.37;;;17.20;;
20173;SDS011;10246;50.620;7.232;2022-12-18T14:51:59;29.70;;;15.60;;
20173;SDS011;10246;50.620;7.232;2022-12-18T14:54:28;37.53;;;18.23;;
20173;SDS011;10246;50.620;7.232;2022-12-18T14:56:58;37.47;;;17.80;;
20173;SDS011;10246;50.620;7.232;2022-12-18T14:59:28;37.73;;;18.23;;
20173;SDS011;10246;50.620;7.232;2022-12-18T15:01:58;34.90;;;17.87;;
20173;SDS011;10246;50.620;7.232;2022-12-18T15:04:31;32.13;;;16.30;;
20173;SDS011;10246;50.620;7.232;2022-12-18T15:07:04;36.93;;;17.60;;
20173;SDS011;10246;50.620;7.232;2022-12-18T15:09:34;35.17;;;17.27;;
20173;SDS011;10246;50.620;7.232;2022-12-18T15:12:02;34.27;;;17.53;;
20173;SDS011;10246;50.620;7.232;2022-12-18T15:14:31;36.17;;;17.43;;
20173;SDS011;10246;50.620;7.232;2022-12-18T15:16:59;33.70;;;17.00;;